sensor_id;sensor_type;location;lat;lon;timestamp;pressure;altitude;pressure_sealevel;temperature;humidity
57050;BME280;42935;50.966;16.992;2023-04-08T00:01:04;101716.42;;;3.16;100.00
57050;BME280;42935;50.966;16.992;2023-04-08T00:04:32;101716.54;;;3.17;100.00
57050;BME280;42935;50.966;16.992;2023-04-08T00:07:56;101720.48;;;3.33;100.00
57050;BME280;42935;50.966;16.992;2023-04-08T00:11:15;101728.18;;;3.36;100.00
57050;BME280;42935;50.966;16.992;2023-04-08T00:14:38;101719.38;;;3.20;100.00
57050;BME280;42935;50.966;16.992;2023-04-08T00:17:58;101718.47;;;3.29;100.00
57050;BME280;42935;50.966;16.992;2023-04-08T00:21:24;101718.91;;;3.27;100.00
57050;BME280;42935;50.966;16.992;2023-04-08T00:24:53;101733.91;;;3.34;100.00
57050;BME280;42935;50.966;16.992;2023-04-08T00:28:20;101737.71;;;3.42;100.00
57050;BME280;42935;50.966;16.992;2023-04-08T00:31:40;101739.75;;;3.57;100.00
57050;BME280;42935;50.966;16.992;2023-04-08T00:35:01;101729.98;;;3.66;100.00
57050;BME280;42935;50.966;16.992;2023-04-08T00:38:17;101726.91;;;3.84;100.00
57050;BME280;42935;50.966;16.992;2023-04-08T00:41:36;101727.77;;;3.75;100.00
57050;BME280;42935;50.966;16.992;2023-04-08T00:44:51;101729.16;;;3.78;100.00
57050;BME280;42935;50.966;16.992;2023-04-08T00:48:11;101740.96;;;3.55;100.00
57050;BME280;42935;50.966;16.992;2023-04-08T00:51:30;101722.61;;;3.40;100.00
57050;BME280;42935;50.966;16.992;2023-04-08T00:54:48;101737.62;;;3.57;100.00
57050;BME280;42935;50.966;16.992;2023-04-08T00:58:07;101748.26;;;3.69;100.00
57050;BME280;42935;50.966;16.992;2023-04-08T01:08:39;101748.95;;;3.83;100.00
57050;BME280;42935;50.966;16.992;2023-04-08T01:12:04;101741.50;;;3.74;100.00
57050;BME280;42935;50.966;16.992;2023-04-08T01:15:20;101748.71;;;3.79;100.00
57050;BME280;42935;50.966;16.992;2023-04-08T01:18:45;101752.67;;;3.73;100.00
57050;BME280;42935;50.966;16.992;2023-04-08T01:22:18;101762.67;;;3.75;100.00
57050;BME280;42935;50.966;16.992;2023-04-08T01:25:37;101768.04;;;3.95;100.00
57050;BME280;42935;50.966;16.992;2023-04-08T01:29:02;101769.10;;;3.99;100.00
57050;BME280;42935;50.966;16.992;2023-04-08T01:32:22;101757.24;;;3.92;100.00
57050;BME280;42935;50.966;16.992;2023-04-08T01:35:41;101757.05;;;4.00;100.00
57050;BME280;42935;50.966;16.992;2023-04-08T01:39:05;101744.35;;;3.89;100.00
57050;BME280;42935;50.966;16.992;2023-04-08T01:42:28;101766.91;;;4.09;100.00
57050;BME280;42935;50.966;16.992;2023-04-08T01:45:50;101758.69;;;4.09;100.00
57050;BME280;42935;50.966;16.992;2023-04-08T01:49:20;101773.24;;;4.16;100.00
57050;BME280;42935;50.966;16.992;2023-04-08T01:52:58;101762.20;;;4.17;100.00
57050;BME280;42935;50.966;16.992;2023-04-08T01:56:21;101766.19;;;4.19;100.00
57050;BME280;42935;50.966;16.992;2023-04-08T01:59:47;101765.16;;;4.18;100.00
57050;BME280;42935;50.966;16.992;2023-04-08T02:03:11;101772.19;;;4.07;100.00
57050;BME280;42935;50.966;16.992;2023-04-08T02:06:27;101779.33;;;3.88;100.00
57050;BME280;42935;50.966;16.992;2023-04-08T02:09:45;101788.41;;;3.74;100.00
57050;BME280;42935;50.966;16.992;2023-04-08T02:13:04;101789.04;;;3.67;100.00
57050;BME280;42935;50.966;16.992;2023-04-08T02:20:07;101791.90;;;3.45;100.00
57050;BME280;42935;50.966;16.992;2023-04-08T02:23:33;101781.09;;;3.36;100.00
57050;BME280;42935;50.966;16.992;2023-04-08T02:26:52;101798.75;;;3.29;100.00
57050;BME280;42935;50.966;16.992;2023-04-08T02:30:17;101812.40;;;3.19;100.00
57050;BME280;42935;50.966;16.992;2023-04-08T02:33:39;101798.16;;;3.02;100.00
57050;BME280;42935;50.966;16.992;2023-04-08T02:37:08;101806.03;;;2.94;100.00
57050;BME280;42935;50.966;16.992;2023-04-08T02:40:36;101809.11;;;2.91;100.00
57050;BME280;42935;50.966;16.992;2023-04-08T02:43:58;101808.73;;;2.90;100.00
57050;BME280;42935;50.966;16.992;2023-04-08T02:47:15;101816.52;;;2.91;100.00
57050;BME280;42935;50.966;16.992;2023-04-08T02:50:42;101826.96;;;2.97;100.00
57050;BME280;42935;50.966;16.992;2023-04-08T02:54:09;101829.40;;;3.01;100.00
57050;BME280;42935;50.966;16.992;2023-04-08T02:57:34;101835.52;;;2.91;100.00
57050;BME280;42935;50.966;16.992;2023-04-08T03:01:02;101840.70;;;2.85;100.00
57050;BME280;42935;50.966;16.992;2023-04-08T03:04:25;101836.73;;;2.80;100.00
57050;BME280;42935;50.966;16.992;2023-04-08T03:07:52;101848.07;;;2.84;100.00
57050;BME280;42935;50.966;16.992;2023-04-08T03:11:41;101844.34;;;2.80;100.00
57050;BME280;42935;50.966;16.992;2023-04-08T03:15:03;101844.15;;;2.74;100.00
57050;BME280;42935;50.966;16.992;2023-04-08T03:18:31;101847.56;;;2.81;100.00
57050;BME280;42935;50.966;16.992;2023-04-08T03:21:58;101852.88;;;2.81;100.00
57050;BME280;42935;50.966;16.992;2023-04-08T03:25:18;101861.99;;;2.80;100.00
57050;BME280;42935;50.966;16.992;2023-04-08T03:28:49;101857.58;;;2.72;100.00
57050;BME280;42935;50.966;16.992;2023-04-08T03:32:14;101867.71;;;2.71;100.00
57050;BME280;42935;50.966;16.992;2023-04-08T03:35:35;101855.75;;;2.58;100.00
57050;BME280;42935;50.966;16.992;2023-04-08T03:38:59;101866.50;;;2.58;100.00
57050;BME280;42935;50.966;16.992;2023-04-08T03:42:20;101860.12;;;2.50;100.00
57050;BME280;42935;50.966;16.992;2023-04-08T03:45:37;101873.73;;;2.52;100.00
57050;BME280;42935;50.966;16.992;2023-04-08T03:48:55;101865.31;;;2.41;100.00
57050;BME280;42935;50.966;16.992;2023-04-08T03:52:10;101869.98;;;2.44;100.00
57050;BME280;42935;50.966;16.992;2023-04-08T03:55:30;101873.04;;;2.37;100.00
57050;BME280;42935;50.966;16.992;2023-04-08T03:58:53;101880.60;;;2.40;100.00
57050;BME280;42935;50.966;16.992;2023-04-08T04:02:19;101885.38;;;2.45;100.00
57050;BME280;42935;50.966;16.992;2023-04-08T04:05:37;101879.38;;;2.34;100.00
57050;BME280;42935;50.966;16.992;2023-04-08T04:08:57;101896.62;;;2.46;100.00
57050;BME280;42935;50.966;16.992;2023-04-08T04:12:24;101890.75;;;2.45;100.00
57050;BME280;42935;50.966;16.992;2023-04-08T04:15:47;101907.24;;;2.57;100.00
57050;BME280;42935;50.966;16.992;2023-04-08T04:19:10;101916.09;;;2.44;100.00
57050;BME280;42935;50.966;16.992;2023-04-08T04:22:38;101921.68;;;2.39;100.00
57050;BME280;42935;50.966;16.992;2023-04-08T04:25:57;101910.69;;;2.28;100.00
57050;BME280;42935;50.966;16.992;2023-04-08T04:29:16;101928.95;;;2.30;100.00
57050;BME280;42935;50.966;16.992;2023-04-08T04:32:36;101926.79;;;2.25;100.00
57050;BME280;42935;50.966;16.992;2023-04-08T04:35:58;101928.55;;;2.25;100.00
57050;BME280;42935;50.966;16.992;2023-04-08T04:39:25;101937.95;;;2.31;100.00
57050;BME280;42935;50.966;16.992;2023-04-08T04:42:50;101932.47;;;2.23;100.00
57050;BME280;42935;50.966;16.992;2023-04-08T04:46:07;101943.99;;;2.23;100.00
57050;BME280;42935;50.966;16.992;2023-04-08T04:49:27;101962.20;;;2.29;100.00
57050;BME280;42935;50.966;16.992;2023-04-08T04:52:51;101952.71;;;2.30;100.00
57050;BME280;42935;50.966;16.992;2023-04-08T04:56:12;101962.09;;;2.38;100.00
57050;BME280;42935;50.966;16.992;2023-04-08T04:59:36;101964.30;;;2.26;100.00
57050;BME280;42935;50.966;16.992;2023-04-08T05:03:00;101963.98;;;2.25;100.00
57050;BME280;42935;50.966;16.992;2023-04-08T05:06:21;101965.87;;;2.16;100.00
57050;BME280;42935;50.966;16.992;2023-04-08T05:09:50;101974.84;;;2.15;100.00
57050;BME280;42935;50.966;16.992;2023-04-08T05:13:13;101976.96;;;2.10;100.00
57050;BME280;42935;50.966;16.992;2023-04-08T05:16:33;101973.26;;;2.08;100.00
57050;BME280;42935;50.966;16.992;2023-04-08T05:19:58;101974.05;;;2.18;100.00
57050;BME280;42935;50.966;16.992;2023-04-08T05:23:18;102002.80;;;2.35;100.00
57050;BME280;42935;50.966;16.992;2023-04-08T05:26:42;102011.13;;;2.26;100.00
57050;BME280;42935;50.966;16.992;2023-04-08T05:30:02;102015.17;;;2.39;100.00
57050;BME280;42935;50.966;16.992;2023-04-08T05:33:30;102016.40;;;2.51;100.00
57050;BME280;42935;50.966;16.992;2023-04-08T05:36:55;102010.81;;;2.44;100.00
57050;BME280;42935;50.966;16.992;2023-04-08T05:40:19;102027.72;;;2.59;100.00
57050;BME280;42935;50.966;16.992;2023-04-08T05:43:43;102007.01;;;2.34;100.00
57050;BME280;42935;50.966;16.992;2023-04-08T05:47:07;102026.01;;;2.50;100.00
57050;BME280;42935;50.966;16.992;2023-04-08T05:50:33;102010.96;;;2.45;100.00
57050;BME280;42935;50.966;16.992;2023-04-08T05:53:57;102033.69;;;2.50;100.00
57050;BME280;42935;50.966;16.992;2023-04-08T05:57:12;102024.93;;;2.62;100.00
57050;BME280;42935;50.966;16.992;2023-04-08T06:00:41;102034.29;;;2.73;100.00
57050;BME280;42935;50.966;16.992;2023-04-08T06:04:05;102026.15;;;2.64;100.00
57050;BME280;42935;50.966;16.992;2023-04-08T06:07:32;102036.76;;;2.70;100.00
57050;BME280;42935;50.966;16.992;2023-04-08T06:11:00;102039.57;;;2.75;100.00
57050;BME280;42935;50.966;16.992;2023-04-08T06:14:24;102034.70;;;2.64;100.00
57050;BME280;42935;50.966;16.992;2023-04-08T06:17:52;102040.71;;;2.59;100.00
57050;BME280;42935;50.966;16.992;2023-04-08T06:21:14;102049.55;;;2.64;100.00
57050;BME280;42935;50.966;16.992;2023-04-08T06:24:35;102062.36;;;2.71;100.00
57050;BME280;42935;50.966;16.992;2023-04-08T06:27:58;102049.55;;;2.66;100.00
57050;BME280;42935;50.966;16.992;2023-04-08T06:31:26;102068.08;;;2.85;100.00
57050;BME280;42935;50.966;16.992;2023-04-08T06:34:49;102063.14;;;2.91;100.00
57050;BME280;42935;50.966;16.992;2023-04-08T06:38:12;102078.88;;;2.99;100.00
57050;BME280;42935;50.966;16.992;2023-04-08T06:41:39;102085.02;;;3.14;100.00
57050;BME280;42935;50.966;16.992;2023-04-08T06:45:01;102087.30;;;3.07;100.00
57050;BME280;42935;50.966;16.992;2023-04-08T06:48:18;102078.97;;;3.10;100.00
57050;BME280;42935;50.966;16.992;2023-04-08T06:51:44;102093.13;;;3.06;100.00
57050;BME280;42935;50.966;16.992;2023-04-08T06:55:05;102092.80;;;3.00;100.00
57050;BME280;42935;50.966;16.992;2023-04-08T06:58:24;102100.46;;;2.90;100.00
57050;BME280;42935;50.966;16.992;2023-04-08T07:01:52;102109.36;;;2.98;100.00
57050;BME280;42935;50.966;16.992;2023-04-08T07:05:20;102114.27;;;3.11;100.00
57050;BME280;42935;50.966;16.992;2023-04-08T07:08:54;102115.52;;;3.24;100.00
57050;BME280;42935;50.966;16.992;2023-04-08T07:12:15;102118.63;;;3.22;100.00
57050;BME280;42935;50.966;16.992;2023-04-08T07:15:40;102088.11;;;3.14;100.00
57050;BME280;42935;50.966;16.992;2023-04-08T07:19:04;102105.85;;;3.09;100.00
57050;BME280;42935;50.966;16.992;2023-04-08T07:22:25;102123.75;;;3.47;100.00
57050;BME280;42935;50.966;16.992;2023-04-08T07:25:52;102136.05;;;3.64;100.00
57050;BME280;42935;50.966;16.992;2023-04-08T07:29:11;102138.23;;;3.66;100.00
57050;BME280;42935;50.966;16.992;2023-04-08T07:32:37;102131.06;;;3.78;100.00
57050;BME280;42935;50.966;16.992;2023-04-08T07:35:58;102139.89;;;3.51;100.00
57050;BME280;42935;50.966;16.992;2023-04-08T07:39:17;102136.44;;;3.48;100.00
57050;BME280;42935;50.966;16.992;2023-04-08T07:42:40;102149.56;;;3.62;100.00
57050;BME280;42935;50.966;16.992;2023-04-08T07:46:00;102142.99;;;3.76;100.00
57050;BME280;42935;50.966;16.992;2023-04-08T07:49:22;102155.91;;;3.80;100.00
57050;BME280;42935;50.966;16.992;2023-04-08T07:52:40;102164.32;;;3.74;100.00
57050;BME280;42935;50.966;16.992;2023-04-08T07:56:00;102166.60;;;3.75;100.00
57050;BME280;42935;50.966;16.992;2023-04-08T07:59:32;102170.81;;;3.44;100.00
57050;BME280;42935;50.966;16.992;2023-04-08T08:02:52;102165.98;;;3.62;100.00
57050;BME280;42935;50.966;16.992;2023-04-08T08:06:16;102170.95;;;3.21;100.00
57050;BME280;42935;50.966;16.992;2023-04-08T08:09:36;102185.93;;;3.34;100.00
57050;BME280;42935;50.966;16.992;2023-04-08T08:12:56;102175.91;;;3.53;100.00
57050;BME280;42935;50.966;16.992;2023-04-08T08:16:27;102178.13;;;3.63;100.00
57050;BME280;42935;50.966;16.992;2023-04-08T08:19:47;102176.54;;;3.67;100.00
57050;BME280;42935;50.966;16.992;2023-04-08T08:23:11;102188.83;;;3.70;100.00
57050;BME280;42935;50.966;16.992;2023-04-08T08:26:36;102191.12;;;3.72;100.00
57050;BME280;42935;50.966;16.992;2023-04-08T08:30:08;102200.59;;;3.75;100.00
57050;BME280;42935;50.966;16.992;2023-04-08T08:33:32;102178.71;;;3.73;100.00
57050;BME280;42935;50.966;16.992;2023-04-08T08:36:53;102200.34;;;3.97;100.00
57050;BME280;42935;50.966;16.992;2023-04-08T08:40:19;102190.09;;;4.36;100.00
57050;BME280;42935;50.966;16.992;2023-04-08T08:43:44;102199.86;;;4.34;100.00
57050;BME280;42935;50.966;16.992;2023-04-08T08:47:04;102204.52;;;4.17;100.00
57050;BME280;42935;50.966;16.992;2023-04-08T08:50:27;102191.74;;;4.12;100.00
57050;BME280;42935;50.966;16.992;2023-04-08T08:53:51;102197.05;;;4.10;100.00
57050;BME280;42935;50.966;16.992;2023-04-08T08:57:19;102168.07;;;4.13;100.00
57050;BME280;42935;50.966;16.992;2023-04-08T09:00:41;102221.40;;;4.36;100.00
57050;BME280;42935;50.966;16.992;2023-04-08T09:04:09;102215.27;;;4.29;100.00
57050;BME280;42935;50.966;16.992;2023-04-08T09:07:38;102228.53;;;4.42;100.00
57050;BME280;42935;50.966;16.992;2023-04-08T09:11:13;102236.76;;;4.48;100.00
57050;BME280;42935;50.966;16.992;2023-04-08T09:14:32;102241.00;;;4.45;100.00
57050;BME280;42935;50.966;16.992;2023-04-08T09:17:56;102232.81;;;4.59;100.00
57050;BME280;42935;50.966;16.992;2023-04-08T09:21:22;102244.99;;;4.83;100.00
57050;BME280;42935;50.966;16.992;2023-04-08T09:24:50;102247.05;;;4.68;100.00
57050;BME280;42935;50.966;16.992;2023-04-08T09:31:39;102223.77;;;4.77;100.00
57050;BME280;42935;50.966;16.992;2023-04-08T09:35:05;102257.20;;;4.69;100.00
57050;BME280;42935;50.966;16.992;2023-04-08T09:38:26;102247.84;;;4.95;100.00
57050;BME280;42935;50.966;16.992;2023-04-08T09:41:51;102261.84;;;5.03;100.00
57050;BME280;42935;50.966;16.992;2023-04-08T09:45:15;102263.63;;;4.96;100.00
57050;BME280;42935;50.966;16.992;2023-04-08T09:48:39;102262.73;;;5.25;100.00
57050;BME280;42935;50.966;16.992;2023-04-08T09:55:36;102269.58;;;5.47;100.00
57050;BME280;42935;50.966;16.992;2023-04-08T09:59:13;102261.04;;;5.41;100.00
57050;BME280;42935;50.966;16.992;2023-04-08T10:02:55;102278.01;;;5.32;100.00
57050;BME280;42935;50.966;16.992;2023-04-08T10:06:09;102271.05;;;5.08;100.00
57050;BME280;42935;50.966;16.992;2023-04-08T10:09:30;102279.07;;;5.20;100.00
57050;BME280;42935;50.966;16.992;2023-04-08T10:12:53;102274.73;;;5.32;100.00
57050;BME280;42935;50.966;16.992;2023-04-08T10:16:22;102289.14;;;5.18;100.00
57050;BME280;42935;50.966;16.992;2023-04-08T10:19:52;102283.85;;;5.33;100.00
57050;BME280;42935;50.966;16.992;2023-04-08T10:23:53;102280.42;;;5.12;100.00
57050;BME280;42935;50.966;16.992;2023-04-08T10:26:56;102277.52;;;5.45;100.00
57050;BME280;42935;50.966;16.992;2023-04-08T10:33:49;102279.24;;;6.46;99.61
57050;BME280;42935;50.966;16.992;2023-04-08T10:37:07;102233.22;;;6.33;97.67
57050;BME280;42935;50.966;16.992;2023-04-08T10:40:36;102268.43;;;6.59;94.42
57050;BME280;42935;50.966;16.992;2023-04-08T10:44:03;102263.77;;;6.71;95.95
57050;BME280;42935;50.966;16.992;2023-04-08T10:47:31;102271.94;;;7.21;92.85
57050;BME280;42935;50.966;16.992;2023-04-08T10:50:54;102260.82;;;7.32;93.29
57050;BME280;42935;50.966;16.992;2023-04-08T10:54:16;102268.43;;;7.31;91.36
57050;BME280;42935;50.966;16.992;2023-04-08T10:57:38;102265.24;;;7.68;89.58
57050;BME280;42935;50.966;16.992;2023-04-08T11:01:13;102269.41;;;6.91;88.37
57050;BME280;42935;50.966;16.992;2023-04-08T11:04:32;102261.61;;;7.05;87.12
57050;BME280;42935;50.966;16.992;2023-04-08T11:07:48;102268.18;;;7.21;87.25
57050;BME280;42935;50.966;16.992;2023-04-08T11:11:05;102206.96;;;7.56;90.00
57050;BME280;42935;50.966;16.992;2023-04-08T11:14:34;102251.93;;;8.58;87.43
57050;BME280;42935;50.966;16.992;2023-04-08T11:17:57;102263.37;;;8.63;84.71
57050;BME280;42935;50.966;16.992;2023-04-08T11:21:17;102262.44;;;8.46;83.45
57050;BME280;42935;50.966;16.992;2023-04-08T11:24:38;102257.04;;;8.63;82.83
57050;BME280;42935;50.966;16.992;2023-04-08T11:28:11;102251.93;;;8.52;82.33
57050;BME280;42935;50.966;16.992;2023-04-08T11:31:35;102260.11;;;8.83;82.36
57050;BME280;42935;50.966;16.992;2023-04-08T11:34:55;102248.46;;;8.84;79.15
57050;BME280;42935;50.966;16.992;2023-04-08T11:38:15;102248.25;;;8.26;81.60
57050;BME280;42935;50.966;16.992;2023-04-08T11:41:39;102244.30;;;8.41;79.23
57050;BME280;42935;50.966;16.992;2023-04-08T11:45:09;102252.10;;;9.10;80.31
57050;BME280;42935;50.966;16.992;2023-04-08T11:48:30;102241.20;;;10.42;75.01
57050;BME280;42935;50.966;16.992;2023-04-08T11:51:59;102245.30;;;9.15;76.94
57050;BME280;42935;50.966;16.992;2023-04-08T11:55:30;102255.26;;;9.15;81.11
57050;BME280;42935;50.966;16.992;2023-04-08T11:58:54;102239.29;;;9.61;80.71
57050;BME280;42935;50.966;16.992;2023-04-08T12:02:15;102251.17;;;9.89;80.34
57050;BME280;42935;50.966;16.992;2023-04-08T12:05:38;102254.09;;;10.38;76.86
57050;BME280;42935;50.966;16.992;2023-04-08T12:08:55;102244.80;;;10.32;74.82
57050;BME280;42935;50.966;16.992;2023-04-08T12:12:11;102240.73;;;10.68;78.27
57050;BME280;42935;50.966;16.992;2023-04-08T12:15:31;102250.31;;;10.15;76.63
57050;BME280;42935;50.966;16.992;2023-04-08T12:18:48;102247.71;;;10.67;71.69
57050;BME280;42935;50.966;16.992;2023-04-08T12:22:16;102243.94;;;10.98;72.33
57050;BME280;42935;50.966;16.992;2023-04-08T12:25:39;102253.45;;;10.99;70.43
57050;BME280;42935;50.966;16.992;2023-04-08T12:28:56;102247.73;;;11.40;70.73
57050;BME280;42935;50.966;16.992;2023-04-08T12:32:16;102248.46;;;11.92;68.40
57050;BME280;42935;50.966;16.992;2023-04-08T12:35:36;102245.04;;;12.47;70.03
57050;BME280;42935;50.966;16.992;2023-04-08T12:38:59;102246.00;;;12.39;66.24
57050;BME280;42935;50.966;16.992;2023-04-08T12:42:23;102245.93;;;12.18;65.18
57050;BME280;42935;50.966;16.992;2023-04-08T12:45:48;102251.63;;;11.59;67.40
57050;BME280;42935;50.966;16.992;2023-04-08T12:49:13;102235.09;;;10.81;67.71
57050;BME280;42935;50.966;16.992;2023-04-08T12:52:46;102246.71;;;10.71;68.26
57050;BME280;42935;50.966;16.992;2023-04-08T12:56:06;102227.98;;;11.30;67.71
57050;BME280;42935;50.966;16.992;2023-04-08T12:59:25;102243.77;;;11.32;67.09
57050;BME280;42935;50.966;16.992;2023-04-08T13:02:49;102229.59;;;9.96;67.89
57050;BME280;42935;50.966;16.992;2023-04-08T13:06:17;102218.92;;;10.00;69.80
57050;BME280;42935;50.966;16.992;2023-04-08T13:09:36;102219.95;;;10.39;68.82
57050;BME280;42935;50.966;16.992;2023-04-08T13:12:53;102207.95;;;12.01;68.62
57050;BME280;42935;50.966;16.992;2023-04-08T13:16:17;102214.40;;;12.91;64.92
57050;BME280;42935;50.966;16.992;2023-04-08T13:19:37;102217.27;;;13.81;61.99
57050;BME280;42935;50.966;16.992;2023-04-08T13:22:52;102219.05;;;14.08;61.27
57050;BME280;42935;50.966;16.992;2023-04-08T13:26:16;102220.34;;;13.11;59.47
57050;BME280;42935;50.966;16.992;2023-04-08T13:29:39;102217.19;;;12.76;62.11
57050;BME280;42935;50.966;16.992;2023-04-08T13:33:02;102209.28;;;13.65;61.13
57050;BME280;42935;50.966;16.992;2023-04-08T13:36:18;102213.28;;;13.42;62.74
57050;BME280;42935;50.966;16.992;2023-04-08T13:39:38;102206.31;;;13.97;63.77
57050;BME280;42935;50.966;16.992;2023-04-08T13:42:59;102221.15;;;14.14;62.36
57050;BME280;42935;50.966;16.992;2023-04-08T13:46:19;102221.32;;;14.29;61.54
57050;BME280;42935;50.966;16.992;2023-04-08T13:49:41;102205.25;;;14.31;58.12
57050;BME280;42935;50.966;16.992;2023-04-08T13:52:59;102207.01;;;13.06;59.42
57050;BME280;42935;50.966;16.992;2023-04-08T13:56:20;102232.67;;;10.95;60.68
57050;BME280;42935;50.966;16.992;2023-04-08T13:59:38;102226.33;;;10.22;65.70
57050;BME280;42935;50.966;16.992;2023-04-08T14:02:59;102223.27;;;10.99;65.90
57050;BME280;42935;50.966;16.992;2023-04-08T14:06:18;102218.09;;;11.15;65.63
57050;BME280;42935;50.966;16.992;2023-04-08T14:09:39;102227.04;;;11.87;65.13
57050;BME280;42935;50.966;16.992;2023-04-08T14:12:55;102216.25;;;11.24;66.43
57050;BME280;42935;50.966;16.992;2023-04-08T14:16:15;102220.52;;;11.61;64.52
57050;BME280;42935;50.966;16.992;2023-04-08T14:19:34;102220.07;;;11.77;66.57
57050;BME280;42935;50.966;16.992;2023-04-08T14:22:54;102213.20;;;13.11;65.47
57050;BME280;42935;50.966;16.992;2023-04-08T14:26:15;102209.59;;;12.62;62.32
57050;BME280;42935;50.966;16.992;2023-04-08T14:29:34;102210.96;;;12.78;62.01
57050;BME280;42935;50.966;16.992;2023-04-08T14:32:51;102202.17;;;13.13;60.16
57050;BME280;42935;50.966;16.992;2023-04-08T14:36:17;102192.98;;;14.15;60.85
57050;BME280;42935;50.966;16.992;2023-04-08T14:39:40;102181.72;;;14.34;57.47
57050;BME280;42935;50.966;16.992;2023-04-08T14:42:57;102197.22;;;14.24;56.53
57050;BME280;42935;50.966;16.992;2023-04-08T14:46:14;102196.02;;;13.87;58.24
57050;BME280;42935;50.966;16.992;2023-04-08T14:49:33;102194.73;;;14.10;58.18
57050;BME280;42935;50.966;16.992;2023-04-08T14:52:53;102207.95;;;14.06;57.68
57050;BME280;42935;50.966;16.992;2023-04-08T14:56:11;102195.95;;;12.21;59.73
57050;BME280;42935;50.966;16.992;2023-04-08T14:59:27;102204.09;;;12.37;60.09
57050;BME280;42935;50.966;16.992;2023-04-08T15:02:46;102199.42;;;12.13;60.11
57050;BME280;42935;50.966;16.992;2023-04-08T15:06:07;102208.37;;;11.96;62.29
57050;BME280;42935;50.966;16.992;2023-04-08T15:09:27;102207.78;;;11.87;62.90
57050;BME280;42935;50.966;16.992;2023-04-08T15:12:47;102214.66;;;11.35;63.55
57050;BME280;42935;50.966;16.992;2023-04-08T15:16:05;102215.34;;;11.41;63.59
57050;BME280;42935;50.966;16.992;2023-04-08T15:19:19;102200.97;;;11.45;63.94
57050;BME280;42935;50.966;16.992;2023-04-08T15:22:43;102217.27;;;11.13;64.13
57050;BME280;42935;50.966;16.992;2023-04-08T15:26:08;102207.41;;;11.16;64.14
57050;BME280;42935;50.966;16.992;2023-04-08T15:29:28;102207.32;;;11.04;64.70
57050;BME280;42935;50.966;16.992;2023-04-08T15:32:45;102200.09;;;10.38;69.50
57050;BME280;42935;50.966;16.992;2023-04-08T15:36:00;102209.23;;;10.40;69.17
57050;BME280;42935;50.966;16.992;2023-04-08T15:39:28;102212.66;;;10.51;70.01
57050;BME280;42935;50.966;16.992;2023-04-08T15:42:53;102216.75;;;10.52;70.70
57050;BME280;42935;50.966;16.992;2023-04-08T15:46:19;102226.30;;;10.78;70.23
57050;BME280;42935;50.966;16.992;2023-04-08T15:49:47;102216.87;;;10.83;68.43
57050;BME280;42935;50.966;16.992;2023-04-08T15:53:10;102226.48;;;10.95;68.25
57050;BME280;42935;50.966;16.992;2023-04-08T15:56:31;102217.35;;;11.07;67.46
57050;BME280;42935;50.966;16.992;2023-04-08T15:59:58;102219.12;;;10.94;67.41
57050;BME280;42935;50.966;16.992;2023-04-08T16:03:27;102213.95;;;10.60;67.68
57050;BME280;42935;50.966;16.992;2023-04-08T16:06:48;102209.85;;;10.42;68.72
57050;BME280;42935;50.966;16.992;2023-04-08T16:10:13;102235.17;;;10.49;68.84
57050;BME280;42935;50.966;16.992;2023-04-08T16:13:37;102236.38;;;10.37;70.84
57050;BME280;42935;50.966;16.992;2023-04-08T16:17:07;102234.02;;;10.16;72.20
57050;BME280;42935;50.966;16.992;2023-04-08T16:20:30;102223.83;;;9.88;73.80
57050;BME280;42935;50.966;16.992;2023-04-08T16:23:57;102232.65;;;9.70;73.32
57050;BME280;42935;50.966;16.992;2023-04-08T16:27:25;102237.59;;;9.86;75.14
57050;BME280;42935;50.966;16.992;2023-04-08T16:30:48;102234.02;;;9.62;74.83
57050;BME280;42935;50.966;16.992;2023-04-08T16:34:12;102233.28;;;9.25;76.34
57050;BME280;42935;50.966;16.992;2023-04-08T16:37:36;102237.91;;;9.57;77.62
57050;BME280;42935;50.966;16.992;2023-04-08T16:40:56;102238.16;;;9.66;77.26
57050;BME280;42935;50.966;16.992;2023-04-08T16:44:21;102229.22;;;9.54;77.34
57050;BME280;42935;50.966;16.992;2023-04-08T16:47:44;102248.77;;;9.26;79.39
57050;BME280;42935;50.966;16.992;2023-04-08T16:51:11;102231.88;;;9.02;80.43
57050;BME280;42935;50.966;16.992;2023-04-08T16:54:31;102255.63;;;9.26;81.37
57050;BME280;42935;50.966;16.992;2023-04-08T16:57:58;102238.21;;;8.92;82.71
57050;BME280;42935;50.966;16.992;2023-04-08T17:01:19;102260.52;;;9.19;83.13
57050;BME280;42935;50.966;16.992;2023-04-08T17:04:42;102249.35;;;9.25;83.35
57050;BME280;42935;50.966;16.992;2023-04-08T17:08:06;102225.59;;;9.21;82.90
57050;BME280;42935;50.966;16.992;2023-04-08T17:11:24;102259.84;;;9.51;84.01
57050;BME280;42935;50.966;16.992;2023-04-08T17:14:42;102262.39;;;9.39;87.22
57050;BME280;42935;50.966;16.992;2023-04-08T17:18:02;102278.42;;;8.89;93.05
57050;BME280;42935;50.966;16.992;2023-04-08T17:21:21;102277.93;;;8.91;91.43
57050;BME280;42935;50.966;16.992;2023-04-08T17:24:42;102278.96;;;8.67;91.13
57050;BME280;42935;50.966;16.992;2023-04-08T17:28:04;102246.02;;;8.14;95.18
57050;BME280;42935;50.966;16.992;2023-04-08T17:31:21;102289.15;;;8.00;100.00
57050;BME280;42935;50.966;16.992;2023-04-08T17:34:39;102293.46;;;7.85;100.00
57050;BME280;42935;50.966;16.992;2023-04-08T17:37:59;102295.59;;;7.89;100.00
57050;BME280;42935;50.966;16.992;2023-04-08T17:41:23;102302.60;;;7.54;100.00
57050;BME280;42935;50.966;16.992;2023-04-08T17:44:47;102294.44;;;7.39;100.00
57050;BME280;42935;50.966;16.992;2023-04-08T17:48:06;102306.43;;;7.41;100.00